Terminal Aerodrome Forecast
Issued by NWS

Home | Current Version | Previous Version | Graphics & Text | Print | Product List | Glossary On
Versions: 1 2 3 4 5 6 7 8 9 10 11 12 13
000
FTUS42 KMHX 291100
TAFPGV
TAF
KPGV 291122Z 2912/3012 VRB03KT P6SM SKC
     FM291800 22007KT P6SM OVC150
     FM292300 21007KT P6SM OVC080
     FM300800 27007KT P6SM OVC050
      AMD LTD TO CLD VIS AND WIND=

USA.gov is the U.S. government's official web portal to all federal, state and local government web resources and services.